Thursday, September 20, 2018, 4:49 PM EDT
Back to Local

KFMH, Otis Air National Guard Base

Location: Mashpee, MA, United States Lat: 41.65
Local Time: 4:49 PM EDT (20:49 GMT) Lon: -70.517
Time Zone: US/Eastern Elev: 131 ft

Show me the last for .
Show Coded

Time T Td Feel RH Dir Speed Gust Alt SLP Vis Weather Sky Remarks
2018-09-20 16:35 63 59 - 88 30° 10 16 30.25 - 4 HZ FEW033 BKN042 None
2018-09-20 16:15 63 57 - 82 50° 12 - 30.25 - 9 FEW030 SCT036 OVC043 None
2018-09-20 15:55 64 57 - 77 30° 14 - 30.25 - 10 FEW020 SCT025 OVC045 None
2018-09-20 15:35 66 57 - 72 30° 12 - 30.24 - 10 SCT020 BKN032 OVC042 None
2018-09-20 15:15 64 57 - 77 40° 12 - 30.24 - 10 FEW020 SCT031 BKN040 None
2018-09-20 14:55 64 57 - 77 30° 14 - 30.24 - 9 SCT021 BKN029 OVC037 None
2018-09-20 14:35 64 59 - 82 30° 14 22 30.23 - 9 FEW016 SCT023 BKN028 None
2018-09-20 14:15 64 59 - 82 30° 15 - 30.24 - 10 FEW017 SCT025 BKN043 None
2018-09-20 13:55 66 59 - 77 30° 14 - 30.24 - 10 FEW016 SCT026 BKN039 None
2018-09-20 13:35 66 59 - 77 40° 15 - 30.24 - 10 FEW015 SCT021 BKN026 None
2018-09-20 13:15 66 61 - 82 30° 12 18 30.24 - 10 FEW015 SCT024 BKN039 None
2018-09-20 12:55 64 59 - 82 30° 15 - 30.25 - 10 FEW015 FEW025 OVC038 None
2018-09-20 12:35 64 61 - 88 20° 10 - 30.25 - 10 SCT014 SCT019 OVC037 None
2018-09-20 12:15 64 61 - 88 40° 12 20 30.24 - 10 SCT013 SCT019 SCT037 None
2018-09-20 11:55 63 61 - 93 40° 12 17 30.25 - 1 -DZ SCT016 SCT024 SCT029 None
2018-09-20 11:35 63 61 - 93 30° 12 22 30.24 - 1 -DZ SCT019 SCT024 BKN044 Variable visibility
2018-09-20 11:15 64 61 - 88 40° 13 21 30.23 - 7 FEW016 BKN021 OVC050 None
2018-09-20 10:55 64 61 - 88 30° 14 - 30.24 - 10 BKN015 BKN021 BKN027 None
2018-09-20 10:35 64 63 - 93 30° 12 22 30.23 - 3 BR SCT015 BKN022 BKN049 None
2018-09-20 10:15 64 61 - 88 50° 15 - 30.22 - 10 SCT015 BKN023 BKN043 None
2018-09-20 09:55 64 63 - 93 40° 10 - 30.21 - 5 BR SCT014 BKN024 BKN030 None
2018-09-20 09:35 64 61 - 88 30° 8 15 30.21 - 10 SCT012 BKN027 OVC048 None
2018-09-20 09:15 63 61 - 93 30° 10 - 30.20 - 10 FEW013 SCT034 BKN043 None
2018-09-20 08:55 63 63 - 100 30° 6 - 30.20 - 10 FEW010 SCT028 BKN034 None
2018-09-20 08:35 61 61 - 100 30° 8 - 30.18 - 5 BR FEW006 SCT010 BKN014 None
2018-09-20 08:15 61 61 - 100 40° 8 15 30.17 - 1 -RA BKN007 BKN014 BKN020 None
2018-09-20 07:55 61 61 - 100 20° 9 16 30.17 - 10 BKN006 BKN015 BKN020 None
2018-09-20 07:35 61 61 - 100 30° 9 - 30.16 - 0 -DZ BKN007 BKN017 OVC027 None
2018-09-20 07:15 61 61 - 100 30° 10 - 30.15 - 2 -DZ SCT008 BKN018 BKN027 None
2018-09-20 06:55 61 61 - 100 30° 10 - 30.14 - 2 BR BKN007 BKN013 BKN019 None
2018-09-20 06:35 61 61 - 100 40° 12 18 30.13 - 1 -DZ OVC006 None
2018-09-20 06:15 61 61 - 100 30° 13 - 30.13 - 1 -DZ FEW003 OVC008 None
2018-09-20 05:55 61 61 - 100 20° 10 17 30.12 - 9 BKN008 BKN016 OVC032 None
2018-09-20 05:35 61 61 - 100 20° 14 20 30.11 - 2 -DZ BKN008 OVC013 None
2018-09-20 05:15 61 59 - 93 20° 10 21 30.11 - 5 -DZ OVC010 None
2018-09-20 04:55 61 59 - 93 30° 12 - 30.10 - 6 BR BKN009 OVC013 None
2018-09-20 04:35 61 59 - 93 10° 8 16 30.10 - 10 FEW009 BKN014 OVC020 None
2018-09-20 04:15 61 59 - 93 20° 13 18 30.10 - 5 BR BKN011 OVC018 None
2018-09-20 03:55 61 59 - 93 30° 10 17 30.09 - 5 BR BKN010 OVC015 None
2018-09-20 03:35 61 59 - 93 20° 12 18 30.09 - 10 OVC014 None
2018-09-20 03:15 61 57 - 87 30° 8 20 30.08 - 10 BKN015 OVC037 None
2018-09-20 02:55 61 57 - 87 20° 10 16 30.09 - 10 SCT015 BKN021 OVC040 None
2018-09-20 02:35 61 57 - 87 40° 16 22 30.09 - 10 OVC019 None
2018-09-20 02:15 61 57 - 87 20° 10 - 30.09 - 10 OVC020 None
2018-09-20 01:55 61 57 - 87 30° 12 18 30.09 - 10 OVC021 None
2018-09-20 01:35 61 57 - 87 20° 10 - 30.09 - 10 OVC019 None
2018-09-20 01:15 61 55 - 82 20° 12 - 30.09 - 10 BKN017 None
2018-09-20 00:55 61 55 - 82 30° 12 20 30.08 - 10 BKN017 None
2018-09-20 00:35 61 57 - 87 30° 13 18 30.07 - 10 BKN018 None
2018-09-20 00:15 61 55 - 82 30° 14 22 30.06 - 10 OVC019 None
2018-09-19 23:55 61 55 - 82 30° 17 - 30.06 - 10 OVC019 None
2018-09-19 23:35 61 55 - 82 30° 15 - 30.07 - 10 OVC020 None
2018-09-19 23:15 61 55 - 82 30° 13 23 30.06 - 10 BKN018 OVC024 None
2018-09-19 22:55 61 55 - 82 30° 14 20 30.06 - 10 BKN017 BKN023 BKN030 None
2018-09-19 22:35 61 55 - 82 30° 14 - 30.05 - 10 SCT014 BKN020 OVC029 None
2018-09-19 22:15 61 55 - 82 30° 12 - 30.06 - 10 SCT017 BKN023 BKN028 None
2018-09-19 21:55 61 55 - 82 30° 13 - 30.05 - 10 BKN021 OVC026 None
2018-09-19 21:35 61 55 - 82 30° 13 24 30.05 - 10 OVC023 None
2018-09-19 17:55 61 57 - 87 10° 10 16 30.00 - 9 BKN014 OVC019 None
2018-09-19 17:35 61 57 - 87 30° 10 - 29.99 - 10 BKN014 OVC019 None
2018-09-19 17:15 61 57 - 87 20° 9 18 29.98 - 8 OVC013 None
2018-09-19 16:55 61 57 - 87 30° 16 - 29.96 - 10 OVC013 None

Support USWX by starting your Amazon purchase here.